Time;durP1;ratioP1;P1;durP2;ratioP2;P2;SDS_P1;SDS_P2;PMS_P1;PMS_P2;Temp;Humidity;BMP_temperature;BMP_pressure;BME280_temperature;BME280_humidity;BME280_pressure;Samples;Min_cycle;Max_cycle;Signal;HPM_P1;HPM_P2
2021/10/13 00:00:20;;;;;;;1.42;0.98;;;;;;;4.93;100.00;101773.72;6271298;28;20045;-73
2021/10/13 00:03:22;;;;;;;2.90;0.80;;;;;;;4.90;100.00;101768.53;6271481;28;20052;-73
2021/10/13 00:06:23;;;;;;;6.07;0.90;;;;;;;4.89;100.00;101769.41;6271287;28;20060;-73
2021/10/13 00:09:24;;;;;;;1.80;0.88;;;;;;;4.89;100.00;101771.16;6271130;28;20463;-72
2021/10/13 00:12:28;;;;;;;5.32;0.93;;;;;;;4.85;100.00;101780.75;6271194;28;20048;-73
2021/10/13 00:15:29;;;;;;;0.65;0.60;;;;;;;4.83;100.00;101778.19;6271424;28;20053;-73
2021/10/13 00:18:31;;;;;;;2.15;1.05;;;;;;;4.88;100.00;101785.94;6271178;28;20049;-72
2021/10/13 00:21:33;;;;;;;0.93;0.63;;;;;;;4.93;100.00;101789.34;6271247;28;20048;-73
2021/10/13 00:24:34;;;;;;;0.43;0.43;;;;;;;4.90;100.00;101784.16;6271935;28;20067;-73
2021/10/13 00:27:37;;;;;;;0.77;0.70;;;;;;;4.90;100.00;101784.16;6276135;28;20055;-72
2021/10/13 00:30:38;;;;;;;1.80;0.80;;;;;;;4.86;100.00;101779.91;6275917;28;20041;-72
2021/10/13 00:33:39;;;;;;;4.05;1.20;;;;;;;4.86;100.00;101786.81;6275591;28;20389;-72
2021/10/13 00:36:40;;;;;;;2.72;0.82;;;;;;;4.78;100.00;101779.13;6276134;28;20049;-72
2021/10/13 00:39:42;;;;;;;1.67;1.02;;;;;;;4.71;100.00;101786.13;6275487;28;20075;-72
2021/10/13 00:42:44;;;;;;;1.50;1.00;;;;;;;4.70;100.00;101784.41;6276196;28;20056;-73
2021/10/13 00:45:46;;;;;;;1.02;0.88;;;;;;;4.65;100.00;101783.63;6275325;28;20057;-73
2021/10/13 00:48:47;;;;;;;2.03;0.80;;;;;;;4.62;100.00;101774.97;6275855;28;20052;-72
2021/10/13 00:51:49;;;;;;;1.48;0.90;;;;;;;4.61;100.00;101774.13;6275516;28;20049;-73
2021/10/13 00:54:50;;;;;;;4.32;1.27;;;;;;;4.63;100.00;101776.69;6275146;28;20488;-72
2021/10/13 00:57:53;;;;;;;1.38;0.80;;;;;;;4.58;100.00;101775.00;6275440;28;20083;-73
2021/10/13 01:00:59;;;;;;;5.60;1.20;;;;;;;4.59;100.00;101781.09;6275230;28;20049;-73
2021/10/13 01:04:14;;;;;;;5.18;1.70;;;;;;;4.58;100.00;101775.00;6275176;28;20052;-71
2021/10/13 01:07:27;;;;;;;1.95;1.20;;;;;;;4.56;100.00;101771.56;6275126;28;20060;-72
2021/10/13 01:10:40;;;;;;;3.33;1.20;;;;;;;4.52;100.00;101780.28;6274919;28;20138;-72
2021/10/13 01:13:56;;;;;;;4.25;1.50;;;;;;;4.50;100.00;101784.66;6274672;28;20053;-72
2021/10/13 01:17:03;;;;;;;3.22;2.08;;;;;;;4.54;100.00;101780.25;6275017;28;20060;-72
2021/10/13 01:20:13;;;;;;;5.75;2.20;;;;;;;4.57;100.00;101786.31;6274983;28;20060;-73
2021/10/13 01:23:36;;;;;;;4.22;2.15;;;;;;;4.60;100.00;101782.81;6274727;28;20084;-73
2021/10/13 01:26:44;;;;;;;3.60;2.17;;;;;;;4.63;100.00;101781.91;6274797;28;20404;-72
2021/10/13 01:29:48;;;;;;;4.10;2.47;;;;;;;4.64;100.00;101791.47;6274603;28;20056;-72
2021/10/13 01:33:09;;;;;;;5.22;2.72;;;;;;;4.67;100.00;101791.41;6274687;28;20048;-71
2021/10/13 01:36:14;;;;;;;5.15;2.65;;;;;;;4.67;100.00;101797.47;6273478;28;20132;-72
2021/10/13 01:39:16;;;;;;;6.43;2.88;;;;;;;4.65;100.00;101793.19;6274718;28;20059;-72
2021/10/13 01:42:19;;;;;;;4.38;2.42;;;;;;;4.66;100.00;101789.69;6274160;28;20053;-71
2021/10/13 01:45:24;;;;;;;3.60;2.15;;;;;;;4.66;100.00;101794.88;6274107;28;20053;-73
2021/10/13 01:48:26;;;;;;;3.25;2.08;;;;;;;4.70;100.00;101796.59;6274266;28;20056;-73
2021/10/13 01:51:30;;;;;;;4.80;2.42;;;;;;;4.73;100.00;101799.16;6274109;28;20049;-71
2021/10/13 01:54:32;;;;;;;5.50;2.45;;;;;;;4.74;100.00;101795.66;6273833;28;20052;-72
2021/10/13 01:57:36;;;;;;;5.68;2.40;;;;;;;4.76;100.00;101802.56;6274220;28;20056;-72
2021/10/13 02:00:39;;;;;;;5.57;2.50;;;;;;;4.79;100.00;101799.94;6273946;28;20048;-72
2021/10/13 02:03:44;;;;;;;5.18;2.47;;;;;;;4.83;100.00;101814.63;6273539;28;20488;-71
2021/10/13 02:06:49;;;;;;;6.18;2.53;;;;;;;4.87;100.00;101812.00;6273719;28;20511;-73
2021/10/13 02:09:53;;;;;;;5.05;2.78;;;;;;;4.91;100.00;101809.34;6273519;28;20045;-73
2021/10/13 02:12:58;;;;;;;3.40;1.95;;;;;;;4.95;100.00;101821.44;6273665;28;20071;-73
2021/10/13 02:16:02;;;;;;;3.42;2.10;;;;;;;4.96;100.00;101825.78;6273295;28;20053;-72
2021/10/13 02:19:06;;;;;;;4.13;1.88;;;;;;;4.92;100.00;101825.81;6273538;28;20052;-72
2021/10/13 02:22:09;;;;;;;3.33;2.28;;;;;;;4.91;100.00;101817.16;6273220;28;20055;-73
2021/10/13 02:25:10;;;;;;;4.78;2.15;;;;;;;4.94;100.00;101822.31;6273343;28;20048;-73
2021/10/13 02:28:15;;;;;;;3.33;1.98;;;;;;;4.99;100.00;101835.28;6273107;28;20049;-72
2021/10/13 02:31:18;;;;;;;3.85;2.35;;;;;;;5.06;100.00;101831.72;6273175;28;20496;-72
2021/10/13 02:34:19;;;;;;;7.80;2.85;;;;;;;5.12;100.00;101839.44;6272847;28;20503;-71
2021/10/13 02:37:21;;;;;;;3.85;2.55;;;;;;;5.18;100.00;101841.09;6273241;28;20057;-72
2021/10/13 02:40:22;;;;;;;3.22;2.20;;;;;;;5.22;100.00;101848.88;6272740;28;20060;-73
2021/10/13 02:43:24;;;;;;;3.92;2.75;;;;;;;5.24;100.00;101848.84;6272872;28;20056;-71
2021/10/13 02:46:31;;;;;;;5.78;2.78;;;;;;;5.24;100.00;101844.50;6273048;28;20049;-73
2021/10/13 02:49:40;;;;;;;3.85;2.40;;;;;;;5.25;100.00;101837.53;6272530;28;20415;-72
2021/10/13 02:52:47;;;;;;;4.95;2.70;;;;;;;5.22;100.00;101855.81;6272780;28;20519;-73
2021/10/13 02:55:55;;;;;;;4.35;2.45;;;;;;;5.12;100.00;101852.47;6272423;28;20053;-73
2021/10/13 02:59:04;;;;;;;5.38;2.70;;;;;;;5.07;100.00;101844.72;6272522;28;20053;-72
2021/10/13 03:02:12;;;;;;;6.03;2.70;;;;;;;5.16;100.00;101846.34;6272790;28;20124;-72
2021/10/13 03:05:18;;;;;;;3.92;2.42;;;;;;;5.22;100.00;101835.84;6272286;28;20052;-72
2021/10/13 03:08:23;;;;;;;8.95;3.00;;;;;;;5.29;100.00;101845.28;6272637;28;20056;-72
2021/10/13 03:11:26;;;;;;;5.07;2.70;;;;;;;5.34;100.00;101840.03;6272352;28;20044;-72
2021/10/13 03:14:30;;;;;;;5.93;2.90;;;;;;;5.33;100.00;101843.50;6271871;28;20053;-73
2021/10/13 03:17:35;;;;;;;8.10;4.03;;;;;;;5.34;100.00;101837.41;6272281;28;20053;-72
2021/10/13 03:20:37;;;;;;;8.45;3.40;;;;;;;5.39;100.00;101838.19;6272083;28;20056;-72
2021/10/13 03:23:38;;;;;;;5.97;3.28;;;;;;;5.39;100.00;101848.63;6271914;28;20131;-73
2021/10/13 03:26:45;;;;;;;4.97;2.67;;;;;;;5.38;100.00;101854.72;6271764;28;20412;-72
2021/10/13 03:29:47;;;;;;;4.88;2.83;;;;;;;5.34;100.00;101859.13;6271950;28;20420;-73
2021/10/13 03:32:50;;;;;;;6.25;2.88;;;;;;;5.38;100.00;101862.56;6271737;28;20123;-72
2021/10/13 03:35:51;;;;;;;7.03;2.85;;;;;;;5.39;100.00;101856.44;6271715;28;20048;-73
2021/10/13 03:38:52;;;;;;;2.83;2.17;;;;;;;5.35;100.00;101857.38;6271704;28;20069;-72
2021/10/13 03:41:54;;;;;;;4.45;3.00;;;;;;;5.39;100.00;101861.66;6271583;28;20053;-71
2021/10/13 03:44:55;;;;;;;4.45;2.85;;;;;;;5.43;100.00;101865.94;6271361;28;20048;-72
2021/10/13 03:47:58;;;;;;;3.45;2.30;;;;;;;5.44;100.00;101864.22;6271528;28;20420;-72
2021/10/13 03:50:59;;;;;;;5.90;2.78;;;;;;;5.48;100.00;101863.28;6271775;28;20045;-72
2021/10/13 03:54:00;;;;;;;7.30;2.83;;;;;;;5.51;100.00;101860.66;6271130;28;20519;-72
2021/10/13 03:57:01;;;;;;;9.05;3.67;;;;;;;5.54;100.00;101865.78;6271658;28;20052;-73
2021/10/13 04:00:05;;;;;;;6.38;2.88;;;;;;;5.51;100.00;101869.31;6270756;28;20052;-72
2021/10/13 04:03:08;;;;;;;5.00;2.63;;;;;;;5.52;100.00;101875.41;6271715;28;20052;-72
2021/10/13 04:06:10;;;;;;;4.30;2.40;;;;;;;5.47;100.00;101869.38;6271081;28;20060;-73
2021/10/13 04:09:11;;;;;;;4.57;2.60;;;;;;;5.43;100.00;101875.53;6271218;28;20396;-72
2021/10/13 04:12:12;;;;;;;4.93;2.42;;;;;;;5.45;100.00;101885.06;6270322;28;20051;-73
2021/10/13 04:15:14;;;;;;;6.10;1.83;;;;;;;5.38;100.00;101893.84;6270889;28;20045;-72
2021/10/13 04:18:17;;;;;;;6.03;2.90;;;;;;;5.28;100.00;101892.25;6270953;28;20412;-72
2021/10/13 04:21:18;;;;;;;4.55;2.22;;;;;;;5.31;100.00;101895.69;6271254;28;20048;-72
2021/10/13 04:24:19;;;;;;;4.28;2.75;;;;;;;5.35;100.00;101896.47;6270982;28;20049;-72
2021/10/13 04:27:21;;;;;;;5.18;2.85;;;;;;;5.34;100.00;101887.78;6270865;28;20052;-73
2021/10/13 04:30:22;;;;;;;3.63;1.80;;;;;;;5.36;100.00;101893.00;6271262;28;20052;-72
2021/10/13 04:33:25;;;;;;;4.43;2.08;;;;;;;5.35;100.00;101893.88;6270762;28;20045;-72
2021/10/13 04:36:26;;;;;;;4.53;2.50;;;;;;;5.26;100.00;101886.16;6271051;28;20075;-73
2021/10/13 04:39:28;;;;;;;4.22;1.77;;;;;;;5.25;100.00;101884.44;6271128;28;20052;-72
2021/10/13 04:42:29;;;;;;;5.15;2.17;;;;;;;5.28;100.00;101884.41;6270555;28;20048;-72
2021/10/13 04:45:30;;;;;;;4.50;2.45;;;;;;;5.24;100.00;101887.94;6270889;28;20057;-72
2021/10/13 04:48:33;;;;;;;4.10;2.20;;;;;;;5.32;100.00;101883.50;6271093;28;20496;-71
2021/10/13 04:51:34;;;;;;;6.65;2.45;;;;;;;5.31;100.00;101889.56;6270654;28;20510;-72
2021/10/13 04:54:36;;;;;;;5.35;2.65;;;;;;;5.34;100.00;101881.72;6271018;28;20045;-73
2021/10/13 04:57:37;;;;;;;3.90;2.15;;;;;;;5.42;100.00;101881.63;6270883;28;20045;-73
2021/10/13 05:00:39;;;;;;;5.60;2.30;;;;;;;5.46;100.00;101886.78;6270595;28;20049;-71
2021/10/13 05:03:41;;;;;;;7.50;3.28;;;;;;;5.49;100.00;101885.84;6270332;28;20068;-72
2021/10/13 05:06:43;;;;;;;4.75;2.38;;;;;;;5.55;100.00;101883.19;6270661;28;20049;-72
2021/10/13 05:09:45;;;;;;;4.63;2.25;;;;;;;5.58;100.00;101896.16;6270614;28;20132;-72
2021/10/13 05:12:46;;;;;;;5.10;2.90;;;;;;;5.60;100.00;101897.88;6273278;28;20503;-73
2021/10/13 05:15:47;;;;;;;4.90;3.50;;;;;;;5.63;100.00;101901.31;6274868;28;20044;-72
2021/10/13 05:18:50;;;;;;;5.68;2.83;;;;;;;5.60;100.00;101892.66;6274873;28;20413;-72
2021/10/13 05:21:51;;;;;;;7.95;3.83;;;;;;;5.57;100.00;101902.25;6274978;28;20052;-72
2021/10/13 05:24:53;;;;;;;7.43;2.75;;;;;;;5.54;100.00;101905.78;6274552;28;20049;-73
2021/10/13 05:27:54;;;;;;;6.85;2.60;;;;;;;5.50;100.00;101906.72;6275029;28;20048;-71
2021/10/13 05:30:55;;;;;;;5.78;2.28;;;;;;;5.46;100.00;101902.41;6274678;28;20060;-72
2021/10/13 05:33:58;;;;;;;10.65;2.63;;;;;;;5.35;100.00;101901.69;6274225;28;20056;-73
2021/10/13 05:36:59;;;;;;;4.78;3.25;;;;;;;5.35;100.00;101912.97;6274517;28;20052;-72
2021/10/13 05:40:01;;;;;;;4.88;2.40;;;;;;;5.38;100.00;101909.47;6274228;28;20049;-72
2021/10/13 05:43:02;;;;;;;4.53;2.45;;;;;;;5.40;100.00;101912.06;6274580;28;20041;-72
2021/10/13 05:46:03;;;;;;;5.80;2.83;;;;;;;5.41;100.00;101919.88;6274166;28;20061;-73
2021/10/13 05:49:06;;;;;;;43.92;17.85;;;;;;;5.47;100.00;101917.16;6274158;28;20461;-72
2021/10/13 05:52:08;;;;;;;7.32;4.22;;;;;;;5.45;100.00;101912.84;6273922;28;20056;-72
2021/10/13 05:55:09;;;;;;;9.73;2.72;;;;;;;5.47;100.00;101926.75;6273944;28;20512;-72
2021/10/13 05:58:11;;;;;;;8.43;2.95;;;;;;;5.48;100.00;101923.25;6273978;28;20059;-72
2021/10/13 06:01:17;;;;;;;3.20;2.25;;;;;;;5.52;100.00;101938.81;6273707;28;20052;-72
2021/10/13 06:04:20;;;;;;;4.55;2.50;;;;;;;5.49;100.00;101938.00;6273654;28;20102;-71
2021/10/13 06:07:21;;;;;;;4.97;2.97;;;;;;;5.52;100.00;101937.97;6273975;28;20048;-72
2021/10/13 06:10:23;;;;;;;4.80;2.05;;;;;;;5.54;100.00;101947.50;6273711;28;20055;-71
2021/10/13 06:13:24;;;;;;;4.47;2.33;;;;;;;5.55;100.00;101953.59;6273258;28;20048;-72
2021/10/13 06:16:25;;;;;;;4.75;1.95;;;;;;;5.55;100.00;101945.75;6273653;28;20055;-71
2021/10/13 06:19:28;;;;;;;8.52;2.53;;;;;;;5.56;100.00;101953.56;6273398;28;20049;-73
2021/10/13 06:22:29;;;;;;;6.53;2.78;;;;;;;5.55;100.00;101954.44;6273041;28;20056;-72
2021/10/13 06:25:31;;;;;;;6.90;2.60;;;;;;;5.57;100.00;101957.88;6273093;28;20056;-73
2021/10/13 06:28:32;;;;;;;6.60;2.33;;;;;;;5.59;100.00;101963.94;6271969;28;20041;-73
2021/10/13 06:31:34;;;;;;;4.50;2.20;;;;;;;5.59;100.00;101965.69;6272712;28;20048;-71
2021/10/13 06:34:36;;;;;;;6.28;2.83;;;;;;;5.52;100.00;101957.06;6277157;28;20400;-72
2021/10/13 06:37:38;;;;;;;7.75;2.47;;;;;;;5.52;100.00;101967.50;6279449;28;20044;-71
2021/10/13 06:40:39;;;;;;;3.10;2.10;;;;;;;5.51;100.00;101970.16;6282465;28;20044;-72
2021/10/13 06:43:41;;;;;;;4.03;2.25;;;;;;;5.50;100.00;101969.28;6274049;28;20054;-71
2021/10/13 06:46:42;;;;;;;3.53;2.35;;;;;;;5.56;100.00;101978.75;6292008;22;20512;-72
2021/10/13 06:49:45;;;;;;;4.55;2.53;;;;;;;5.65;100.00;101970.81;6254076;28;20053;-74
2021/10/13 06:52:46;;;;;;;2.17;1.55;;;;;;;5.72;100.00;101969.88;6272087;28;20420;-72
2021/10/13 06:55:48;;;;;;;4.25;2.28;;;;;;;5.76;100.00;101978.50;6272243;28;20052;-72
2021/10/13 06:58:49;;;;;;;7.47;2.10;;;;;;;5.76;100.00;101987.16;6270131;28;20048;-72
2021/10/13 07:01:51;;;;;;;6.70;2.40;;;;;;;5.76;100.00;101991.53;6272599;28;20052;-72
2021/10/13 07:04:53;;;;;;;7.55;2.50;;;;;;;5.77;100.00;101993.28;6271333;28;20044;-75
2021/10/13 07:07:55;;;;;;;5.97;2.30;;;;;;;5.76;100.00;101992.38;6272593;28;20530;-72
2021/10/13 07:10:56;;;;;;;6.10;2.88;;;;;;;5.76;100.00;101988.91;6271993;28;20049;-75
2021/10/13 07:13:57;;;;;;;4.18;2.13;;;;;;;5.79;100.00;101987.16;6271845;28;20037;-75
2021/10/13 07:16:59;;;;;;;2.05;1.30;;;;;;;5.83;100.00;101986.22;6271600;28;20052;-75
2021/10/13 07:20:04;;;;;;;9.27;3.25;;;;;;;5.89;100.00;101992.22;6271832;28;20056;-73
2021/10/13 07:23:06;;;;;;;4.15;2.15;;;;;;;5.92;100.00;101993.09;6271840;28;20049;-74
2021/10/13 07:26:08;;;;;;;5.00;3.35;;;;;;;5.92;100.00;102000.91;6271436;28;20057;-74
2021/10/13 07:29:10;;;;;;;10.02;4.18;;;;;;;5.91;100.00;101999.16;6271661;28;20059;-75
2021/10/13 07:32:11;;;;;;;8.70;3.13;;;;;;;5.92;100.00;102010.50;6271265;28;20569;-73
2021/10/13 07:35:14;;;;;;;6.70;3.38;;;;;;;5.95;100.00;102008.72;6268549;28;20052;-76
2021/10/13 07:38:17;;;;;;;6.55;3.00;;;;;;;6.02;100.00;102006.88;6267189;28;20059;-75
2021/10/13 07:41:19;;;;;;;6.38;2.92;;;;;;;6.07;100.00;102015.50;6271394;28;20049;-76
2021/10/13 07:44:20;;;;;;;5.97;3.00;;;;;;;6.09;100.00;102008.53;6270911;28;20048;-76
2021/10/13 07:47:22;;;;;;;6.57;3.05;;;;;;;6.17;100.00;102016.22;6270827;28;20532;-74
2021/10/13 07:50:25;;;;;;;6.90;3.08;;;;;;;6.16;100.00;102020.56;6271539;28;20049;-75
2021/10/13 07:53:27;;;;;;;4.68;2.33;;;;;;;6.17;100.00;102011.00;6271062;28;20056;-75
2021/10/13 07:56:28;;;;;;;7.78;2.58;;;;;;;6.06;100.00;102019.00;6271261;28;20052;-72
2021/10/13 07:59:29;;;;;;;6.20;3.30;;;;;;;6.07;100.00;102013.75;6271113;28;20060;-73
2021/10/13 08:02:31;;;;;;;10.00;2.95;;;;;;;6.17;100.00;102031.88;6271108;28;20052;-72
2021/10/13 08:05:33;;;;;;;4.50;2.13;;;;;;;6.18;100.00;102021.44;6270836;28;20059;-73
2021/10/13 08:08:35;;;;;;;10.77;2.60;;;;;;;6.19;100.00;102028.38;6270430;28;20420;-73
2021/10/13 08:11:36;;;;;;;5.35;3.05;;;;;;;6.20;100.00;102021.41;6264485;28;20044;-73
2021/10/13 08:14:37;;;;;;;3.25;2.00;;;;;;;6.15;100.00;102023.22;6270345;28;20041;-75
2021/10/13 08:17:39;;;;;;;4.75;3.00;;;;;;;6.13;100.00;102017.16;6271324;28;20053;-72
2021/10/13 08:20:42;;;;;;;4.15;2.17;;;;;;;6.22;100.00;102030.06;6271212;28;20060;-74
2021/10/13 08:23:43;;;;;;;3.13;2.05;;;;;;;6.30;100.00;102029.06;6270689;28;20068;-72
2021/10/13 08:26:44;;;;;;;7.05;2.90;;;;;;;6.34;100.00;102037.72;6270871;28;20416;-74
2021/10/13 08:29:46;;;;;;;6.25;2.15;;;;;;;6.41;100.00;102041.13;6270870;28;20049;-73
2021/10/13 08:32:47;;;;;;;4.75;2.60;;;;;;;6.41;100.00;102030.66;6271235;28;20049;-73
2021/10/13 08:35:50;;;;;;;4.22;1.95;;;;;;;6.38;100.00;102036.78;6270614;28;20499;-72
2021/10/13 08:38:51;;;;;;;9.35;3.25;;;;;;;6.43;100.00;102041.94;6270787;28;20428;-73
2021/10/13 08:41:53;;;;;;;5.15;3.03;;;;;;;6.44;100.00;102043.66;6271108;28;20088;-73
2021/10/13 08:44:55;;;;;;;5.22;2.13;;;;;;;6.45;100.00;102048.88;6270009;28;20045;-73
2021/10/13 08:47:57;;;;;;;5.00;2.38;;;;;;;6.55;100.00;102041.75;6275443;28;20056;-74
2021/10/13 08:51:00;;;;;;;5.88;2.83;;;;;;;6.65;100.00;102042.47;6275488;28;20045;-73
2021/10/13 08:54:01;;;;;;;6.88;2.95;;;;;;;6.74;100.00;102037.09;6275383;28;20045;-72
2021/10/13 08:57:15;;;;;;;4.50;2.75;;;;;;;6.90;100.00;102037.69;6275013;28;20048;-75
2021/10/13 09:00:22;;;;;;;5.88;2.97;;;;;;;7.00;100.00;102040.13;6275367;28;20422;-72
2021/10/13 09:03:28;;;;;;;7.80;2.78;;;;;;;7.09;100.00;102037.34;6275086;28;20128;-72
2021/10/13 09:06:33;;;;;;;5.57;3.08;;;;;;;7.16;100.00;102032.00;6275194;28;20045;-73
2021/10/13 09:09:48;;;;;;;5.32;2.67;;;;;;;7.25;100.00;102030.06;6275127;28;20053;-73
2021/10/13 09:12:50;;;;;;;6.25;2.58;;;;;;;7.28;100.00;102031.78;6274305;28;20045;-75
2021/10/13 09:15:53;;;;;;;5.00;2.80;;;;;;;7.37;100.00;102022.00;6274973;28;20060;-73
2021/10/13 09:18:59;;;;;;;5.00;2.70;;;;;;;7.57;100.00;102025.97;6275184;28;20421;-73
2021/10/13 09:22:04;;;;;;;5.63;2.67;;;;;;;7.73;100.00;102029.16;6274950;28;20052;-74
2021/10/13 09:25:11;;;;;;;6.53;3.13;;;;;;;7.83;100.00;102021.06;6274681;28;20045;-73
2021/10/13 09:28:18;;;;;;;6.93;2.65;;;;;;;7.92;100.00;102025.22;6274180;28;20041;-73
2021/10/13 09:31:22;;;;;;;5.05;2.63;;;;;;;7.97;100.00;102030.38;6274210;28;20053;-74
2021/10/13 09:34:24;;;;;;;4.45;2.38;;;;;;;8.05;100.00;102028.44;6274087;28;20458;-72
2021/10/13 09:37:43;;;;;;;5.57;2.60;;;;;;;8.16;100.00;102031.66;6274366;28;20440;-72
2021/10/13 09:40:45;;;;;;;4.82;1.55;;;;;;;8.24;100.00;102034.13;6274409;28;20053;-73
2021/10/13 09:43:46;;;;;;;4.35;2.47;;;;;;;8.33;100.00;102047.00;6274194;28;20526;-74
2021/10/13 09:46:48;;;;;;;5.28;2.20;;;;;;;8.51;100.00;102032.66;6273815;28;20447;-73
2021/10/13 09:49:50;;;;;;;3.25;2.08;;;;;;;8.62;100.00;102041.09;6274047;28;20056;-73
2021/10/13 09:52:53;;;;;;;3.50;2.10;;;;;;;8.84;100.00;102044.06;6274083;28;20485;-78
2021/10/13 09:55:54;;;;;;;2.33;1.90;;;;;;;8.95;100.00;102042.03;6273563;28;20175;-73
2021/10/13 09:59:08;;;;;;;2.85;1.73;;;;;;;9.03;100.00;102047.06;6273226;28;20056;-74
2021/10/13 10:02:10;;;;;;;6.93;1.50;;;;;;;9.24;100.00;102048.25;6273819;28;20041;-73
2021/10/13 10:05:13;;;;;;;1.67;1.40;;;;;;;9.45;100.00;102038.94;6273670;28;20068;-74
2021/10/13 10:08:17;;;;;;;3.25;1.33;;;;;;;9.57;100.00;102042.06;6273509;28;20053;-73
2021/10/13 10:11:27;;;;;;;3.10;1.30;;;;;;;9.72;100.00;102038.19;6272575;28;20073;-74
2021/10/13 10:14:41;;;;;;;0.98;0.80;;;;;;;9.91;100.00;102038.50;6273052;28;20122;-74
2021/10/13 10:17:42;;;;;;;1.00;0.63;;;;;;;9.99;100.00;102039.13;6272129;28;20561;-75
2021/10/13 10:20:44;;;;;;;3.10;0.80;;;;;;;10.15;100.00;102055.25;6273360;28;20442;-74
2021/10/13 10:23:48;;;;;;;2.60;0.98;;;;;;;10.25;100.00;102048.84;6273237;28;20052;-74
2021/10/13 10:26:49;;;;;;;3.60;2.97;;;;;;;10.37;100.00;102050.25;6273525;28;20060;-74
2021/10/13 10:30:01;;;;;;;3.33;1.40;;;;;;;10.34;100.00;102051.19;6273234;28;20488;-73
2021/10/13 10:33:17;;;;;;;1.58;0.80;;;;;;;10.41;100.00;102047.47;6273292;28;20508;-73
2021/10/13 10:36:18;;;;;;;2.50;0.90;;;;;;;10.49;100.00;102046.34;6269671;28;20049;-74
2021/10/13 10:39:59;;;;;;;1.15;0.70;;;;;;;10.36;100.00;102045.91;6273091;28;20056;-73
2021/10/13 10:43:03;;;;;;;2.20;1.08;;;;;;;10.38;100.00;102041.44;6273049;28;20049;-73
2021/10/13 10:46:04;;;;;;;3.75;0.95;;;;;;;10.42;100.00;102045.69;6271935;28;20048;-73
2021/10/13 10:49:06;;;;;;;1.80;0.98;;;;;;;10.24;100.00;102048.88;6272727;28;20053;-71
2021/10/13 10:52:07;;;;;;;0.77;0.77;;;;;;;10.19;100.00;102046.38;6272693;28;20045;-73
2021/10/13 10:55:10;;;;;;;1.88;0.80;;;;;;;10.11;100.00;102046.63;6272191;28;20049;-73
2021/10/13 10:58:17;;;;;;;1.30;0.77;;;;;;;10.07;100.00;102044.97;6272426;28;20515;-74
2021/10/13 11:01:19;;;;;;;0.65;0.57;;;;;;;10.08;100.00;102049.34;6272744;28;20049;-74
2021/10/13 11:04:20;;;;;;;4.22;0.55;;;;;;;10.07;100.00;102049.38;6272354;28;20407;-73
2021/10/13 11:07:22;;;;;;;1.38;0.60;;;;;;;10.12;100.00;102055.34;6272428;28;20049;-74
2021/10/13 11:10:27;;;;;;;2.53;1.20;;;;;;;10.11;100.00;102057.13;6272075;28;20522;-72
2021/10/13 11:13:28;;;;;;;2.55;0.95;;;;;;;10.12;100.00;102058.84;6271675;28;20049;-73
2021/10/13 11:16:30;;;;;;;1.10;0.70;;;;;;;10.14;100.00;102061.44;6271593;28;20055;-72
2021/10/13 11:19:33;;;;;;;1.33;1.10;;;;;;;10.09;100.00;102061.56;6271778;28;20045;-73
2021/10/13 11:22:35;;;;;;;1.33;1.00;;;;;;;10.07;100.00;102073.88;6272038;28;20045;-73
2021/10/13 11:25:38;;;;;;;1.30;0.82;;;;;;;10.24;100.00;102060.28;6271645;28;20052;-73
2021/10/13 11:28:41;;;;;;;1.40;0.75;;;;;;;10.51;100.00;102063.81;6272066;28;20060;-72
2021/10/13 11:31:42;;;;;;;1.40;0.80;;;;;;;11.00;100.00;102058.72;6271888;28;20412;-73
2021/10/13 11:34:56;;;;;;;0.95;0.75;;;;;;;11.21;100.00;102057.94;6271591;28;20408;-73
2021/10/13 11:37:58;;;;;;;2.17;0.98;;;;;;;11.08;100.00;102054.91;6271668;28;20522;-73
2021/10/13 11:41:09;;;;;;;1.00;0.90;;;;;;;10.97;100.00;102058.81;6270972;28;20040;-74
2021/10/13 11:44:11;;;;;;;1.15;0.93;;;;;;;11.02;100.00;102049.84;6271210;28;20048;-74
2021/10/13 11:47:12;;;;;;;4.60;1.52;;;;;;;11.12;100.00;102055.63;6271068;28;20056;-74
2021/10/13 11:50:15;;;;;;;5.03;1.20;;;;;;;11.50;100.00;102056.06;6271372;28;20056;-73
2021/10/13 11:53:17;;;;;;;3.50;0.80;;;;;;;11.94;98.81;102051.78;6271499;28;20041;-73
2021/10/13 11:56:22;;;;;;;1.35;0.85;;;;;;;12.16;93.34;102042.16;6270987;28;20048;-74
2021/10/13 11:59:23;;;;;;;3.00;0.70;;;;;;;11.94;95.52;102041.25;6271354;28;20048;-73
2021/10/13 12:02:24;;;;;;;1.85;0.82;;;;;;;11.76;96.28;102031.38;6271374;28;20053;-74
2021/10/13 12:05:35;;;;;;;2.10;1.33;;;;;;;11.59;99.53;102037.31;6271260;28;20053;-73
2021/10/13 12:08:38;;;;;;;1.65;0.90;;;;;;;11.59;95.40;102032.91;6271427;28;20102;-75
2021/10/13 12:11:41;;;;;;;1.65;0.93;;;;;;;11.58;93.82;102027.66;6271141;28;20404;-74
2021/10/13 12:14:42;;;;;;;0.32;0.32;;;;;;;11.77;94.19;102034.00;6271136;28;20048;-74
2021/10/13 12:17:44;;;;;;;0.30;0.30;;;;;;;11.91;94.01;102028.22;6270678;28;20056;-74
2021/10/13 12:20:48;;;;;;;3.63;0.50;;;;;;;11.76;95.46;102034.03;6272760;28;20056;-72
2021/10/13 12:23:52;;;;;;;1.15;0.52;;;;;;;11.71;94.12;102035.97;6275913;28;20126;-75
2021/10/13 12:26:55;;;;;;;1.85;0.32;;;;;;;11.47;96.57;102035.13;6276123;28;20053;-73
2021/10/13 12:29:58;;;;;;;1.25;0.60;;;;;;;11.24;99.70;102046.47;6274040;28;20419;-74
2021/10/13 12:33:07;;;;;;;1.08;0.43;;;;;;;10.96;100.00;102044.78;6275602;28;20064;-73
2021/10/13 12:36:09;;;;;;;;;;;;;;;10.57;100.00;102049.59;6276010;28;20057;-74
2021/10/13 12:39:15;;;;;;;3.65;0.73;;;;;;;10.25;100.00;102058.50;6275626;28;19947;-74
2021/10/13 12:42:18;;;;;;;2.42;1.05;;;;;;;10.11;100.00;102058.88;6275236;28;20128;-74
2021/10/13 12:45:23;;;;;;;0.80;0.60;;;;;;;9.91;100.00;102064.75;6273773;28;20052;-74
2021/10/13 12:48:25;;;;;;;0.93;0.47;;;;;;;9.81;100.00;102064.16;6272619;28;20049;-74
2021/10/13 12:51:26;;;;;;;1.02;0.40;;;;;;;9.57;100.00;102051.72;6274090;28;20053;-73
2021/10/13 12:54:29;;;;;;;1.75;0.45;;;;;;;9.46;100.00;102046.78;6273639;28;20507;-72
2021/10/13 12:57:33;;;;;;;0.77;0.25;;;;;;;9.43;100.00;102053.88;6271013;28;20044;-73
2021/10/13 13:00:34;;;;;;;0.40;0.40;;;;;;;9.53;100.00;102056.19;6273711;28;20049;-75
2021/10/13 13:03:36;;;;;;;0.70;0.60;;;;;;;9.54;100.00;102059.69;6273062;28;20408;-72
2021/10/13 13:06:39;;;;;;;1.45;0.40;;;;;;;9.68;100.00;102073.28;6273493;28;20049;-74
2021/10/13 13:09:41;;;;;;;2.35;0.40;;;;;;;9.77;100.00;102066.91;6273284;28;20067;-73
2021/10/13 13:12:44;;;;;;;2.28;0.70;;;;;;;9.81;100.00;102077.28;6273598;28;20041;-73
2021/10/13 13:15:46;;;;;;;0.20;0.20;;;;;;;9.94;100.00;102079.53;6272802;28;20052;-73
2021/10/13 13:18:47;;;;;;;2.35;0.55;;;;;;;10.00;100.00;102077.59;6270271;28;20181;-73
2021/10/13 13:21:50;;;;;;;2.38;0.65;;;;;;;9.91;100.00;102075.25;6273284;28;20056;-71
2021/10/13 13:24:51;;;;;;;1.38;0.40;;;;;;;9.86;100.00;102078.00;6293885;22;20045;-77
2021/10/13 13:27:54;;;;;;;0.10;0.10;;;;;;;9.81;100.00;102071.16;6275085;28;20631;-78
2021/10/13 13:30:55;;;;;;;0.55;0.38;;;;;;;9.90;100.00;102063.88;6270166;28;20048;-77
2021/10/13 13:33:57;;;;;;;0.28;0.28;;;;;;;9.89;100.00;102069.16;6273591;28;20049;-77
2021/10/13 13:36:58;;;;;;;0.55;0.20;;;;;;;9.84;100.00;102064.06;6273737;28;20045;-77
2021/10/13 13:40:00;;;;;;;0.38;0.35;;;;;;;9.87;100.00;102060.50;6274745;28;20041;-77
2021/10/13 13:43:03;;;;;;;1.65;0.43;;;;;;;9.91;100.00;102054.25;6272115;28;20484;-76
2021/10/13 13:46:05;;;;;;;1.77;0.47;;;;;;;9.94;100.00;102059.38;6273002;28;20041;-74
2021/10/13 13:49:07;;;;;;;0.95;0.30;;;;;;;9.98;100.00;102060.16;6272405;28;20412;-74
2021/10/13 13:52:08;;;;;;;0.77;0.47;;;;;;;10.11;100.00;102061.50;6274319;28;20049;-77
2021/10/13 13:55:09;;;;;;;1.20;0.40;;;;;;;10.18;100.00;102056.94;6274008;28;20045;-77
2021/10/13 13:58:12;;;;;;;0.22;0.22;;;;;;;10.19;100.00;102061.28;6274407;28;20052;-75
2021/10/13 14:01:13;;;;;;;0.30;0.30;;;;;;;10.29;100.00;102065.38;6274103;28;20651;-75
2021/10/13 14:04:15;;;;;;;0.35;0.35;;;;;;;10.14;100.00;102061.44;6273494;28;20411;-77
2021/10/13 14:07:17;;;;;;;0.25;0.25;;;;;;;10.09;100.00;102066.81;6274010;28;20060;-76
2021/10/13 14:10:19;;;;;;;0.28;0.28;;;;;;;10.14;100.00;102067.53;6273665;28;20052;-77